Time;durP1;ratioP1;P1;durP2;ratioP2;P2;SDS_P1;SDS_P2;PMS_P1;PMS_P2;Temp;Humidity;BMP_temperature;BMP_pressure;BME280_temperature;BME280_humidity;BME280_pressure;Samples;Min_cycle;Max_cycle;Signal;HPM_P1;HPM_P2
2021/12/05 00:24:15;;;;;;;;;;;;;;;7.41;47.67;98489.97;4472636;32;33286;-76
2021/12/05 00:26:46;;;;;;;;;;;;;;;8.13;46.56;98476.00;4459793;32;33888;-79
2021/12/05 00:29:23;;;;;;;;;;;;;;;7.74;47.22;98484.66;4432769;32;34215;-78
2021/12/05 00:31:59;;;;;;;;;;;;;;;8.01;46.66;98482.38;4453547;32;34409;-80
2021/12/05 00:37:45;;;;;;;;;;;;;;;6.25;51.11;98499.22;4465060;32;33915;-77
2021/12/05 00:47:57;;;;;;;;;;;;;;;8.04;47.37;98492.75;4466461;32;33633;-79
2021/12/05 01:01:47;;;;;;;;;;;;;;;6.75;50.57;98483.81;4458922;32;33501;-78
2021/12/05 01:16:43;;;;;;;;;;;;;;;5.47;54.10;98487.34;4477890;32;32547;-75
2021/12/05 01:19:12;;;;;;;;;;;;;;;6.83;51.05;98481.38;4471448;32;33706;-76
2021/12/05 01:21:40;;;;;;;;;;;;;;;6.92;50.42;98475.31;4461794;32;35392;-75
2021/12/05 01:24:21;;;;;;;;;;;;;;;6.54;52.39;98468.56;4464257;32;35030;-75
2021/12/05 01:27:16;;;;;;;;;;;;;;;5.74;55.36;98478.28;4474923;32;34627;-76
2021/12/05 01:29:53;;;;;;;;;;;;;;;6.75;52.09;98470.50;4460879;32;35104;-74
2021/12/05 01:35:05;;;;;;;;;;;;;;;7.11;51.56;98471.19;4469777;32;33843;-75
2021/12/05 01:50:52;;;;;;;;;;;;;;;6.85;53.51;98467.97;4468583;32;34260;-75
2021/12/05 01:53:43;;;;;;;;;;;;;;;6.02;55.17;98461.97;4470036;32;34350;-75
2021/12/05 02:15:40;;;;;;;;;;;;;;;6.36;54.54;98443.44;4476781;32;34338;-75
2021/12/05 02:42:37;;;;;;;;;;;;;;;7.62;51.36;98418.16;4453977;32;33174;-77
2021/12/05 02:45:06;;;;;;;;;;;;;;;7.85;50.54;98413.53;4472673;32;35109;-78
2021/12/05 02:47:33;;;;;;;;;;;;;;;6.97;53.80;98416.44;4473460;32;35097;-78
2021/12/05 02:50:05;;;;;;;;;;;;;;;7.39;51.89;98408.56;4471747;32;32427;-79
2021/12/05 02:52:37;;;;;;;;;;;;;;;8.03;50.57;98413.81;4462830;32;33240;-77
2021/12/05 02:55:35;;;;;;;;;;;;;;;8.69;48.81;98409.94;4468799;32;34158;-76
2021/12/05 02:58:14;;;;;;;;;;;;;;;7.79;51.62;98410.56;4477389;32;34729;-78
2021/12/05 03:03:23;;;;;;;;;;;;;;;7.97;50.67;98414.34;4478681;32;33204;-85
2021/12/05 03:06:01;;;;;;;;;;;;;;;6.90;53.03;98425.88;4454851;32;33198;-80
2021/12/05 03:08:28;;;;;;;;;;;;;;;7.90;50.67;98418.50;4457129;32;34154;-79
2021/12/05 03:10:57;;;;;;;;;;;;;;;7.18;51.72;98411.19;4456025;32;35218;-84
2021/12/05 03:13:25;;;;;;;;;;;;;;;7.36;51.65;98422.97;4449975;32;33291;-79
2021/12/05 03:15:56;;;;;;;;;;;;;;;7.89;51.21;98424.78;4470085;32;34188;-79
2021/12/05 03:18:24;;;;;;;;;;;;;;;8.34;49.97;98422.66;4462660;32;33368;-80
2021/12/05 03:20:55;;;;;;;;;;;;;;;8.46;49.76;98418.13;4459434;32;34861;-81
2021/12/05 03:23:22;;;;;;;;;;;;;;;8.51;49.41;98413.25;4465879;32;34599;-88
2021/12/05 03:25:50;;;;;;;;;;;;;;;8.07;49.75;98417.91;4436073;32;32770;-84
2021/12/05 03:28:18;;;;;;;;;;;;;;;7.50;51.46;98421.81;4453747;32;34439;-88
2021/12/05 03:30:46;;;;;;;;;;;;;;;8.18;49.78;98424.97;4446807;32;33694;-82
2021/12/05 03:33:14;;;;;;;;;;;;;;;8.14;49.40;98437.72;4464358;32;33474;-82
2021/12/05 03:35:41;;;;;;;;;;;;;;;8.39;49.67;98427.62;4443069;32;34710;-76
2021/12/05 03:38:09;;;;;;;;;;;;;;;7.57;52.95;98433.66;4470969;32;34357;-75
2021/12/05 03:40:36;;;;;;;;;;;;;;;8.15;50.54;98431.41;4471817;32;34256;-76
2021/12/05 03:43:05;;;;;;;;;;;;;;;8.33;49.97;98422.81;4474101;32;33127;-76
2021/12/05 03:45:34;;;;;;;;;;;;;;;8.86;49.41;98431.47;4468610;32;34365;-76
2021/12/05 03:48:02;;;;;;;;;;;;;;;8.15;50.40;98420.75;4455870;32;34198;-77
2021/12/05 03:50:30;;;;;;;;;;;;;;;8.82;48.50;98429.19;4476073;32;34058;-79
2021/12/05 03:52:58;;;;;;;;;;;;;;;8.71;48.52;98422.16;4466529;32;31823;-77
2021/12/05 03:55:27;;;;;;;;;;;;;;;9.21;47.54;98419.47;4457282;32;36199;-78
2021/12/05 03:57:56;;;;;;;;;;;;;;;8.96;47.99;98418.16;4455854;32;34386;-78
2021/12/05 04:00:26;;;;;;;;;;;;;;;8.45;48.75;98424.44;4453226;32;35136;-77
2021/12/05 04:02:54;;;;;;;;;;;;;;;8.91;49.20;98427.56;4444570;32;33382;-77
2021/12/05 04:05:22;;;;;;;;;;;;;;;8.56;49.01;98420.84;4462941;32;33989;-78
2021/12/05 04:07:50;;;;;;;;;;;;;;;8.85;47.89;98424.44;4456973;32;34066;-78
2021/12/05 04:10:19;;;;;;;;;;;;;;;9.33;46.56;98422.84;4459822;32;35405;-78
2021/12/05 04:12:47;;;;;;;;;;;;;;;8.14;49.65;98424.38;4460206;32;33091;-78
2021/12/05 04:15:14;;;;;;;;;;;;;;;8.05;49.58;98422.50;4460151;32;33842;-78
2021/12/05 04:17:42;;;;;;;;;;;;;;;9.24;47.60;98416.50;4477971;32;34189;-78
2021/12/05 04:20:11;;;;;;;;;;;;;;;7.57;51.47;98423.00;4477558;32;34175;-78
2021/12/05 04:22:39;;;;;;;;;;;;;;;8.43;49.32;98420.22;4452648;32;34001;-78
2021/12/05 04:25:10;;;;;;;;;;;;;;;8.76;48.64;98427.06;4458234;32;35035;-77
2021/12/05 04:27:38;;;;;;;;;;;;;;;8.18;49.37;98422.28;4472984;32;34133;-76
2021/12/05 04:30:08;;;;;;;;;;;;;;;8.38;49.37;98431.28;4469919;32;34828;-75
2021/12/05 04:32:35;;;;;;;;;;;;;;;9.00;48.71;98421.41;4453897;32;32070;-75
2021/12/05 04:35:04;;;;;;;;;;;;;;;8.05;49.88;98424.31;4457950;32;33787;-78
2021/12/05 04:37:31;;;;;;;;;;;;;;;8.24;49.00;98426.25;4450910;32;32990;-77
2021/12/05 04:39:59;;;;;;;;;;;;;;;8.65;48.81;98436.03;4473836;32;34149;-78
2021/12/05 04:42:26;;;;;;;;;;;;;;;8.66;48.29;98427.03;4474841;32;33353;-77
2021/12/05 04:44:54;;;;;;;;;;;;;;;8.90;48.21;98428.53;4457383;32;33901;-77
2021/12/05 04:47:21;;;;;;;;;;;;;;;8.40;49.19;98413.31;4455200;32;36379;-77
2021/12/05 04:49:49;;;;;;;;;;;;;;;8.98;48.10;98420.69;4459952;32;32900;-78
2021/12/05 04:52:17;;;;;;;;;;;;;;;9.28;47.46;98419.78;4466770;32;32672;-79
2021/12/05 04:54:45;;;;;;;;;;;;;;;9.33;47.23;98410.34;4459546;32;34051;-78
2021/12/05 04:57:12;;;;;;;;;;;;;;;7.62;50.41;98410.16;4475776;32;35253;-77
2021/12/05 04:59:45;;;;;;;;;;;;;;;7.81;50.62;98416.59;4456151;32;34228;-78
2021/12/05 05:02:14;;;;;;;;;;;;;;;8.19;49.76;98417.84;4476884;32;34027;-76
2021/12/05 05:04:46;;;;;;;;;;;;;;;8.46;49.64;98417.28;4462938;32;34911;-77
2021/12/05 05:07:23;;;;;;;;;;;;;;;8.14;49.96;98415.53;4471343;32;34747;-77
2021/12/05 05:09:51;;;;;;;;;;;;;;;8.28;49.81;98406.34;4478774;32;33918;-77
2021/12/05 05:12:19;;;;;;;;;;;;;;;8.46;49.95;98412.78;4473834;32;33263;-77
2021/12/05 05:14:46;;;;;;;;;;;;;;;8.36;49.24;98419.88;4463384;32;34283;-77
2021/12/05 05:17:14;;;;;;;;;;;;;;;8.45;49.96;98427.12;4461715;32;34290;-76
2021/12/05 05:19:50;;;;;;;;;;;;;;;8.50;49.60;98427.53;4463333;32;35247;-78
2021/12/05 05:46:26;;;;;;;;;;;;;;;10.23;45.56;98430.50;4462264;32;34702;-79
2021/12/05 05:49:13;;;;;;;;;;;;;;;10.25;45.50;98428.56;4471098;32;34279;-77
2021/12/05 05:51:41;;;;;;;;;;;;;;;9.51;46.92;98425.69;4471137;32;34749;-75
2021/12/05 05:54:08;;;;;;;;;;;;;;;9.74;47.08;98419.06;4476809;32;34144;-76
2021/12/05 05:56:36;;;;;;;;;;;;;;;9.85;46.40;98423.41;4468704;32;32446;-76
2021/12/05 05:59:12;;;;;;;;;;;;;;;9.20;48.63;98427.62;4456211;32;34463;-75
2021/12/05 06:04:11;;;;;;;;;;;;;;;10.06;45.72;98433.09;4477858;32;33142;-76
2021/12/05 06:06:38;;;;;;;;;;;;;;;8.79;48.59;98430.31;4477254;32;35137;-76
2021/12/05 06:09:05;;;;;;;;;;;;;;;9.75;46.20;98444.78;4475911;32;34223;-72
2021/12/05 06:11:33;;;;;;;;;;;;;;;10.37;45.55;98450.66;4466981;32;33146;-77
2021/12/05 06:14:01;;;;;;;;;;;;;;;10.48;46.38;98439.78;4470758;32;32414;-77
2021/12/05 06:16:29;;;;;;;;;;;;;;;10.66;45.69;98434.50;4461425;32;34220;-77
2021/12/05 06:18:57;;;;;;;;;;;;;;;11.01;44.51;98440.09;4451260;32;35436;-77
2021/12/05 06:21:25;;;;;;;;;;;;;;;10.96;44.05;98449.44;4463840;32;32668;-77
2021/12/05 06:23:52;;;;;;;;;;;;;;;11.48;42.84;98454.19;4462951;32;32221;-77
2021/12/05 06:26:21;;;;;;;;;;;;;;;11.80;41.85;98453.66;4456918;32;33684;-77
2021/12/05 06:29:02;;;;;;;;;;;;;;;11.95;41.26;98451.31;4476237;32;35281;-77
2021/12/05 06:31:53;;;;;;;;;;;;;;;11.76;41.56;98449.62;4460577;32;35215;-77
2021/12/05 06:37:26;;;;;;;;;;;;;;;12.06;41.04;98443.00;4473179;32;32359;-72
2021/12/05 06:47:47;;;;;;;;;;;;;;;11.23;43.52;98439.69;4476447;32;35411;-78
2021/12/05 06:50:14;;;;;;;;;;;;;;;10.69;45.41;98450.28;4445109;32;34253;-79
2021/12/05 06:52:42;;;;;;;;;;;;;;;11.07;43.70;98456.41;4457679;32;34048;-79
2021/12/05 06:55:10;;;;;;;;;;;;;;;11.02;43.80;98465.91;4474341;32;32084;-79
2021/12/05 06:57:38;;;;;;;;;;;;;;;11.11;43.57;98465.03;4464203;32;34309;-79
2021/12/05 07:00:07;;;;;;;;;;;;;;;10.80;44.15;98467.97;4462299;32;34813;-78
2021/12/05 07:02:35;;;;;;;;;;;;;;;10.97;43.72;98477.03;4457733;32;35950;-78
2021/12/05 07:07:34;;;;;;;;;;;;;;;11.24;43.30;98484.25;4476058;32;34976;-80
2021/12/05 07:10:03;;;;;;;;;;;;;;;10.56;45.18;98478.31;4458101;32;34277;-77
2021/12/05 07:13:24;;;;;;;;;;;;;;;11.41;43.18;98480.75;4471115;32;32627;-76
2021/12/05 07:23:48;;;;;;;;;;;;;;;11.85;42.12;98480.06;4474648;32;35411;-77
2021/12/05 07:40:22;;;;;;;;;;;;;;;10.36;45.31;98473.03;4477507;32;34211;-77
2021/12/05 07:42:54;;;;;;;;;;;;;;;9.90;46.66;98498.66;4460140;32;34085;-77
2021/12/05 07:45:28;;;;;;;;;;;;;;;11.16;44.04;98501.03;4462805;32;33253;-77
2021/12/05 07:47:56;;;;;;;;;;;;;;;11.23;43.90;98501.28;4461673;32;33389;-77
2021/12/05 07:50:38;;;;;;;;;;;;;;;10.94;44.45;98496.06;4468980;32;33740;-77
2021/12/05 07:53:14;;;;;;;;;;;;;;;11.80;42.27;98496.56;4461885;32;34666;-77
2021/12/05 07:55:44;;;;;;;;;;;;;;;11.76;42.01;98502.38;4468806;32;34209;-77
2021/12/05 07:58:30;;;;;;;;;;;;;;;11.97;41.91;98502.09;4462019;32;32274;-78
2021/12/05 08:17:02;;;;;;;;;;;;;;;10.86;44.26;98509.38;4459457;32;34359;-77
2021/12/05 08:19:29;;;;;;;;;;;;;;;11.07;43.87;98511.81;4476182;32;33465;-78
2021/12/05 08:21:57;;;;;;;;;;;;;;;11.78;42.50;98505.75;4479808;32;34149;-77
2021/12/05 08:24:25;;;;;;;;;;;;;;;11.71;42.18;98500.16;4459839;32;32944;-77
2021/12/05 08:26:53;;;;;;;;;;;;;;;11.66;42.80;98502.47;4460768;32;32910;-77
2021/12/05 08:29:31;;;;;;;;;;;;;;;12.09;41.90;98500.88;4481053;32;34102;-78
2021/12/05 08:35:00;;;;;;;;;;;;;;;12.10;41.90;98507.91;4461346;32;34214;-78
2021/12/05 09:21:31;;;;;;;;;;;;;;;12.39;41.10;98501.44;4478064;32;33990;-78
2021/12/05 09:24:32;;;;;;;;;;;;;;;12.34;41.59;98496.56;4463211;32;33236;-76
2021/12/05 10:10:53;;;;;;;;;;;;;;;12.99;40.57;98445.09;4472710;32;34134;-80
2021/12/05 10:13:31;;;;;;;;;;;;;;;12.74;41.12;98462.91;4457967;32;34402;-79
2021/12/05 10:38:26;;;;;;;;;;;;;;;12.86;41.22;98447.38;4471647;32;33198;-78
2021/12/05 10:41:06;;;;;;;;;;;;;;;12.47;41.92;98461.25;4455922;32;34497;-78
2021/12/05 10:43:34;;;;;;;;;;;;;;;11.68;43.39;98451.38;4463591;32;34210;-78
2021/12/05 10:46:07;;;;;;;;;;;;;;;12.42;42.30;98444.78;4469450;32;33273;-79
2021/12/05 10:48:40;;;;;;;;;;;;;;;12.58;41.25;98439.50;4456189;32;35207;-77
2021/12/05 10:51:38;;;;;;;;;;;;;;;12.29;42.35;98437.16;4477950;32;34312;-78
2021/12/05 10:54:13;;;;;;;;;;;;;;;12.37;41.99;98445.25;4467848;32;34403;-78
2021/12/05 10:56:47;;;;;;;;;;;;;;;12.09;42.77;98441.88;4459744;32;33578;-78
2021/12/05 10:59:19;;;;;;;;;;;;;;;11.66;44.63;98438.13;4459360;32;35292;-78
2021/12/05 11:01:47;;;;;;;;;;;;;;;11.63;43.57;98441.13;4455965;32;32083;-78
2021/12/05 11:04:24;;;;;;;;;;;;;;;12.32;42.36;98436.84;4475092;32;34010;-78
2021/12/05 11:06:58;;;;;;;;;;;;;;;12.07;42.79;98427.75;4455682;32;35482;-76
2021/12/05 11:09:30;;;;;;;;;;;;;;;12.06;43.07;98429.59;4465624;32;35213;-77
2021/12/05 11:12:00;;;;;;;;;;;;;;;12.30;42.35;98426.28;4456617;32;33689;-78
2021/12/05 11:14:29;;;;;;;;;;;;;;;12.30;42.54;98423.59;4461998;32;34312;-77
2021/12/05 11:17:01;;;;;;;;;;;;;;;12.48;41.82;98425.38;4462730;32;34559;-79
2021/12/05 11:19:35;;;;;;;;;;;;;;;11.89;43.24;98420.59;4459588;32;34213;-77
2021/12/05 11:22:05;;;;;;;;;;;;;;;11.98;43.46;98426.88;4470187;32;32231;-78
2021/12/05 11:24:38;;;;;;;;;;;;;;;12.35;42.45;98425.78;4457801;32;35134;-77
2021/12/05 11:27:09;;;;;;;;;;;;;;;12.35;42.38;98439.19;4459647;32;34213;-77
2021/12/05 11:29:45;;;;;;;;;;;;;;;12.48;42.26;98439.63;4474577;32;33256;-76
2021/12/05 11:32:16;;;;;;;;;;;;;;;12.86;41.51;98436.63;4468562;32;32690;-77
2021/12/05 11:34:45;;;;;;;;;;;;;;;12.12;42.71;98420.94;4467782;32;34276;-77
2021/12/05 11:37:13;;;;;;;;;;;;;;;12.34;42.35;98422.25;4459156;32;34475;-77
2021/12/05 11:39:41;;;;;;;;;;;;;;;11.07;44.70;98429.63;4459884;32;33113;-77
2021/12/05 11:42:13;;;;;;;;;;;;;;;11.42;43.75;98430.69;4458804;32;33288;-77
2021/12/05 11:44:41;;;;;;;;;;;;;;;12.09;42.54;98428.47;4463632;32;34264;-78
2021/12/05 11:47:17;;;;;;;;;;;;;;;11.75;43.38;98426.50;4467495;32;34169;-78
2021/12/05 11:49:44;;;;;;;;;;;;;;;12.00;42.53;98429.41;4449994;32;35269;-77
2021/12/05 11:52:13;;;;;;;;;;;;;;;11.72;43.54;98436.66;4454834;32;32604;-76
2021/12/05 11:54:42;;;;;;;;;;;;;;;11.13;44.73;98426.38;4460575;32;34337;-77
2021/12/05 11:57:24;;;;;;;;;;;;;;;10.98;44.80;98429.69;4471173;32;34455;-77
2021/12/05 11:59:57;;;;;;;;;;;;;;;11.50;44.20;98427.25;4457758;32;34326;-78
2021/12/05 12:02:33;;;;;;;;;;;;;;;10.55;45.66;98426.66;4459841;32;33522;-77
2021/12/05 12:05:06;;;;;;;;;;;;;;;10.62;45.03;98426.91;4469632;32;34281;-76
2021/12/05 12:07:53;;;;;;;;;;;;;;;10.59;46.06;98414.66;4454358;32;34245;-77
2021/12/05 12:10:26;;;;;;;;;;;;;;;11.36;44.49;98418.75;4475765;32;33948;-78
2021/12/05 12:12:58;;;;;;;;;;;;;;;11.07;44.82;98431.47;4452686;32;33768;-76
2021/12/05 12:15:26;;;;;;;;;;;;;;;9.67;47.34;98441.16;4466046;32;32996;-78
2021/12/05 12:17:57;;;;;;;;;;;;;;;11.33;44.30;98440.50;4473770;32;35472;-76
2021/12/05 12:20:26;;;;;;;;;;;;;;;10.16;45.91;98447.28;4453506;32;33958;-78
2021/12/05 12:22:54;;;;;;;;;;;;;;;10.90;44.94;98433.97;4466362;32;33557;-76
2021/12/05 12:25:24;;;;;;;;;;;;;;;11.56;43.67;98432.03;4477881;32;32849;-76
2021/12/05 12:27:51;;;;;;;;;;;;;;;11.02;44.90;98429.25;4454124;32;33537;-76
2021/12/05 12:30:24;;;;;;;;;;;;;;;11.05;44.51;98439.69;4474339;32;34296;-75
2021/12/05 12:32:58;;;;;;;;;;;;;;;11.39;43.90;98439.88;4457877;32;34333;-77
2021/12/05 12:35:26;;;;;;;;;;;;;;;11.41;44.18;98423.66;4453834;32;33308;-76
2021/12/05 12:37:56;;;;;;;;;;;;;;;11.62;44.16;98410.81;4469700;32;35284;-78
2021/12/05 12:40:31;;;;;;;;;;;;;;;10.20;47.20;98411.25;4468520;32;33607;-77
2021/12/05 12:42:58;;;;;;;;;;;;;;;10.60;46.20;98419.03;4461265;32;33381;-76
2021/12/05 12:45:27;;;;;;;;;;;;;;;10.37;46.75;98409.69;4469171;32;33097;-77
2021/12/05 12:47:55;;;;;;;;;;;;;;;10.60;47.03;98411.00;4468408;32;34438;-78
2021/12/05 12:50:23;;;;;;;;;;;;;;;10.88;45.79;98413.69;4474033;32;33738;-79
2021/12/05 12:53:02;;;;;;;;;;;;;;;10.83;46.49;98424.84;4455605;32;34457;-79
2021/12/05 12:55:31;;;;;;;;;;;;;;;9.83;47.42;98432.56;4472404;32;34965;-79
2021/12/05 12:58:03;;;;;;;;;;;;;;;11.01;46.02;98422.22;4458438;32;35190;-80
2021/12/05 13:00:31;;;;;;;;;;;;;;;11.52;45.02;98414.53;4470410;32;34031;-78
2021/12/05 13:04:16;;;;;;;;;;;;;;;11.48;44.59;98407.81;4460696;32;32303;-77
2021/12/05 13:11:11;;;;;;;;;;;;;;;12.15;43.04;98394.81;4459854;32;34290;-76
2021/12/05 13:13:40;;;;;;;;;;;;;;;12.08;43.13;98387.41;4457967;32;33454;-78
2021/12/05 13:16:16;;;;;;;;;;;;;;;11.94;42.57;98397.84;4469807;32;34127;-76
2021/12/05 13:18:45;;;;;;;;;;;;;;;11.89;43.34;98384.91;4469307;32;35444;-78
2021/12/05 13:21:17;;;;;;;;;;;;;;;12.02;42.50;98382.66;4456542;32;33400;-79
2021/12/05 13:23:50;;;;;;;;;;;;;;;11.89;43.10;98383.06;4456443;32;31989;-77
2021/12/05 13:26:23;;;;;;;;;;;;;;;11.74;43.12;98373.88;4457177;32;34276;-78
2021/12/05 13:28:58;;;;;;;;;;;;;;;11.22;43.93;98367.53;4472208;32;34146;-78
2021/12/05 13:31:28;;;;;;;;;;;;;;;10.21;48.02;98362.16;4455331;32;34265;-77
2021/12/05 13:34:15;;;;;;;;;;;;;;;10.16;47.36;98364.41;4470495;32;33600;-78
2021/12/05 13:36:43;;;;;;;;;;;;;;;10.45;46.96;98354.47;4469259;32;34358;-79
2021/12/05 13:39:30;;;;;;;;;;;;;;;10.13;48.50;98345.97;4452556;32;34350;-77
2021/12/05 13:42:07;;;;;;;;;;;;;;;10.92;45.89;98337.47;4462957;32;33265;-79
2021/12/05 13:44:53;;;;;;;;;;;;;;;11.30;44.99;98341.69;4476002;32;33528;-78
2021/12/05 13:47:27;;;;;;;;;;;;;;;11.76;44.57;98331.66;4472347;32;34246;-79
2021/12/05 13:49:58;;;;;;;;;;;;;;;12.12;43.56;98348.53;4464761;32;33025;-81
2021/12/05 13:52:32;;;;;;;;;;;;;;;11.95;43.49;98351.28;4452983;32;33818;-81
2021/12/05 13:55:20;;;;;;;;;;;;;;;12.08;42.96;98360.56;4471121;32;33693;-79
2021/12/05 13:58:06;;;;;;;;;;;;;;;12.20;43.01;98363.84;4464177;32;34199;-78
2021/12/05 14:00:38;;;;;;;;;;;;;;;12.21;42.35;98368.19;4457338;32;33771;-77
2021/12/05 14:03:05;;;;;;;;;;;;;;;11.73;43.44;98369.50;4471893;32;33663;-79
2021/12/05 14:05:33;;;;;;;;;;;;;;;11.06;45.17;98366.38;4457530;32;31628;-77
2021/12/05 14:08:00;;;;;;;;;;;;;;;10.91;45.68;98374.09;4471902;32;34106;-78
2021/12/05 14:10:41;;;;;;;;;;;;;;;10.24;47.46;98384.09;4457520;32;33023;-79
2021/12/05 14:13:08;;;;;;;;;;;;;;;10.04;47.84;98383.28;4459491;32;34289;-78
2021/12/05 14:15:36;;;;;;;;;;;;;;;9.27;50.62;98388.69;4461563;32;33418;-77
2021/12/05 14:18:04;;;;;;;;;;;;;;;9.50;50.11;98390.13;4466767;32;34061;-78
2021/12/05 14:20:31;;;;;;;;;;;;;;;9.52;49.50;98387.31;4448317;32;33498;-78
2021/12/05 14:23:04;;;;;;;;;;;;;;;9.13;51.85;98383.78;4458143;32;34152;-78
2021/12/05 14:25:32;;;;;;;;;;;;;;;8.78;52.11;98385.94;4456022;32;32223;-76
2021/12/05 14:28:02;;;;;;;;;;;;;;;9.36;50.69;98387.84;4468307;32;34081;-77
2021/12/05 14:30:30;;;;;;;;;;;;;;;8.83;51.21;98394.41;4452320;32;33108;-77
2021/12/05 14:32:59;;;;;;;;;;;;;;;8.38;53.31;98397.47;4453891;32;34326;-78
2021/12/05 14:35:29;;;;;;;;;;;;;;;8.61;53.10;98400.78;4458435;32;32022;-78
2021/12/05 14:37:57;;;;;;;;;;;;;;;9.11;52.34;98407.91;4461444;32;33851;-78
2021/12/05 14:40:30;;;;;;;;;;;;;;;9.76;49.86;98403.75;4467475;32;37864;-79
2021/12/05 14:43:04;;;;;;;;;;;;;;;9.81;49.01;98408.66;4440346;32;34934;-81
2021/12/05 14:45:32;;;;;;;;;;;;;;;9.85;48.83;98410.03;4438579;32;33420;-80
2021/12/05 14:48:02;;;;;;;;;;;;;;;10.31;48.02;98407.59;4456724;32;35023;-79
2021/12/05 14:50:47;;;;;;;;;;;;;;;10.20;48.32;98408.56;4459599;32;34328;-80
2021/12/05 14:53:18;;;;;;;;;;;;;;;10.47;47.19;98400.66;4452701;32;34698;-79
2021/12/05 14:55:47;;;;;;;;;;;;;;;10.28;47.88;98399.87;4447608;32;33734;-79
2021/12/05 14:58:15;;;;;;;;;;;;;;;10.82;46.78;98398.22;4449847;32;32797;-78
2021/12/05 15:00:46;;;;;;;;;;;;;;;10.56;47.13;98404.28;4441774;32;33803;-80
2021/12/05 15:03:19;;;;;;;;;;;;;;;10.07;48.70;98402.69;4450638;32;34419;-79
2021/12/05 15:05:48;;;;;;;;;;;;;;;9.72;49.66;98401.47;4444749;32;33423;-79
2021/12/05 15:08:17;;;;;;;;;;;;;;;10.53;47.79;98404.56;4455514;32;35391;-78
2021/12/05 15:10:46;;;;;;;;;;;;;;;10.53;47.41;98401.03;4454654;32;33800;-79
2021/12/05 15:13:16;;;;;;;;;;;;;;;9.65;49.80;98411.06;4441041;32;35414;-79
2021/12/05 15:15:45;;;;;;;;;;;;;;;9.54;49.79;98404.03;4456033;32;32887;-77
2021/12/05 15:18:16;;;;;;;;;;;;;;;9.38;50.42;98403.75;4454234;32;34263;-78
2021/12/05 15:20:45;;;;;;;;;;;;;;;9.54;50.93;98401.37;4462365;32;34044;-79
2021/12/05 15:23:14;;;;;;;;;;;;;;;8.92;51.32;98405.22;4459246;32;34002;-77
2021/12/05 15:25:41;;;;;;;;;;;;;;;9.01;52.23;98397.22;4455463;32;33487;-77
2021/12/05 15:28:10;;;;;;;;;;;;;;;9.55;50.64;98403.03;4458276;32;32854;-79
2021/12/05 15:30:38;;;;;;;;;;;;;;;9.04;51.51;98407.63;4456892;32;35142;-78
2021/12/05 15:33:10;;;;;;;;;;;;;;;8.90;52.56;98391.19;4450072;32;34379;-77
2021/12/05 15:35:38;;;;;;;;;;;;;;;8.36;53.91;98386.06;4453276;32;32331;-78
2021/12/05 15:38:07;;;;;;;;;;;;;;;8.81;53.33;98387.50;4451961;32;34288;-77
2021/12/05 15:40:35;;;;;;;;;;;;;;;9.68;49.84;98392.91;4460429;32;34006;-77
2021/12/05 15:43:08;;;;;;;;;;;;;;;9.29;51.01;98392.91;4455924;32;33523;-76
2021/12/05 15:45:36;;;;;;;;;;;;;;;9.59;49.59;98380.41;4460893;32;32499;-77
2021/12/05 15:48:04;;;;;;;;;;;;;;;8.78;52.85;98390.44;4454934;32;32978;-77
2021/12/05 15:50:37;;;;;;;;;;;;;;;8.70;52.94;98392.94;4456461;32;33240;-76
2021/12/05 15:53:11;;;;;;;;;;;;;;;8.62;53.40;98390.97;4458587;32;34047;-77
2021/12/05 15:55:43;;;;;;;;;;;;;;;7.57;54.78;98393.72;4457924;32;34240;-78
2021/12/05 15:58:12;;;;;;;;;;;;;;;7.75;55.69;98395.81;4444878;32;34442;-78
2021/12/05 16:00:42;;;;;;;;;;;;;;;7.22;57.15;98409.94;4455287;32;33699;-79
2021/12/05 16:03:11;;;;;;;;;;;;;;;7.43;57.22;98407.34;4442379;32;33800;-78
2021/12/05 16:05:40;;;;;;;;;;;;;;;7.72;56.27;98410.22;4444728;32;31606;-78
2021/12/05 16:08:08;;;;;;;;;;;;;;;7.85;56.12;98410.03;4455987;32;34537;-78
2021/12/05 16:10:38;;;;;;;;;;;;;;;8.57;53.30;98423.37;4442340;32;35227;-79
2021/12/05 16:13:25;;;;;;;;;;;;;;;7.69;57.18;98419.31;4447267;32;33750;-78
2021/12/05 16:15:54;;;;;;;;;;;;;;;8.08;55.35;98405.41;4447256;32;33232;-78
2021/12/05 16:18:32;;;;;;;;;;;;;;;8.71;53.06;98402.66;4450548;32;33976;-80
2021/12/05 16:21:05;;;;;;;;;;;;;;;7.85;55.42;98410.03;4471032;32;34398;-78
2021/12/05 16:23:36;;;;;;;;;;;;;;;8.43;54.15;98420.22;4471651;32;32455;-78
2021/12/05 16:26:15;;;;;;;;;;;;;;;8.01;55.28;98421.09;4437941;32;33051;-78
2021/12/05 16:28:44;;;;;;;;;;;;;;;8.57;53.75;98427.84;4456065;32;33635;-78
2021/12/05 16:31:18;;;;;;;;;;;;;;;8.08;55.15;98432.91;4453270;32;32710;-78
2021/12/05 16:33:47;;;;;;;;;;;;;;;8.82;52.68;98446.06;4456676;32;33699;-79
2021/12/05 16:36:17;;;;;;;;;;;;;;;8.49;54.06;98463.19;4467279;32;32245;-79
2021/12/05 16:38:45;;;;;;;;;;;;;;;9.03;52.22;98470.00;4477367;32;34229;-77
2021/12/05 16:41:26;;;;;;;;;;;;;;;9.04;52.76;98460.16;4468730;32;35246;-77
2021/12/05 16:43:59;;;;;;;;;;;;;;;9.35;51.60;98442.25;4455939;32;34763;-82
2021/12/05 16:46:29;;;;;;;;;;;;;;;9.23;52.64;98430.84;4446303;32;33181;-77
2021/12/05 16:48:58;;;;;;;;;;;;;;;8.70;53.17;98438.28;4462260;32;34307;-79
2021/12/05 16:51:28;;;;;;;;;;;;;;;9.10;52.55;98447.13;4462067;32;34142;-78
2021/12/05 16:54:01;;;;;;;;;;;;;;;9.19;52.08;98447.28;4462520;32;33929;-77
2021/12/05 16:56:58;;;;;;;;;;;;;;;9.57;51.11;98451.84;4471144;32;34396;-78
2021/12/05 16:59:32;;;;;;;;;;;;;;;9.25;52.05;98457.44;4471707;32;34265;-79
2021/12/05 17:02:07;;;;;;;;;;;;;;;9.30;52.12;98458.69;4469748;32;35224;-78
2021/12/05 17:04:43;;;;;;;;;;;;;;;9.03;52.58;98450.50;4451282;32;34346;-77
2021/12/05 17:07:17;;;;;;;;;;;;;;;9.92;50.49;98456.63;4471281;32;33474;-77
2021/12/05 17:09:45;;;;;;;;;;;;;;;10.48;48.67;98457.66;4447411;32;33600;-77
2021/12/05 17:12:26;;;;;;;;;;;;;;;10.77;47.85;98460.22;4458176;32;33108;-77
2021/12/05 17:15:17;;;;;;;;;;;;;;;10.89;47.64;98467.09;4480897;32;33998;-78
2021/12/05 17:17:46;;;;;;;;;;;;;;;10.89;47.45;98477.78;4464638;32;34070;-79
2021/12/05 17:20:17;;;;;;;;;;;;;;;11.19;46.91;98479.31;4465269;32;34175;-82
2021/12/05 17:23:11;;;;;;;;;;;;;;;11.75;45.19;98484.59;4450127;32;34430;-79
2021/12/05 17:25:39;;;;;;;;;;;;;;;11.42;46.21;98482.44;4469026;32;32867;-79
2021/12/05 17:28:11;;;;;;;;;;;;;;;12.07;43.97;98476.91;4455033;32;33825;-80
2021/12/05 17:30:52;;;;;;;;;;;;;;;12.18;43.73;98481.16;4464388;32;33016;-79
2021/12/05 17:33:24;;;;;;;;;;;;;;;11.99;44.41;98471.47;4456298;32;33667;-80
2021/12/05 17:35:52;;;;;;;;;;;;;;;12.17;43.52;98475.97;4459653;32;34088;-79
2021/12/05 17:38:32;;;;;;;;;;;;;;;12.15;43.49;98473.44;4455192;32;33404;-80
2021/12/05 17:41:00;;;;;;;;;;;;;;;11.96;43.87;98470.94;4474069;32;35301;-79
2021/12/05 17:43:28;;;;;;;;;;;;;;;11.92;44.16;98475.75;4458259;32;33056;-79
2021/12/05 17:45:56;;;;;;;;;;;;;;;11.71;44.85;98476.03;4459351;32;33937;-79
2021/12/05 17:48:24;;;;;;;;;;;;;;;11.96;44.14;98482.50;4472059;32;33541;-81
2021/12/05 17:50:55;;;;;;;;;;;;;;;12.09;43.89;98482.09;4474727;32;34707;-80
2021/12/05 17:53:28;;;;;;;;;;;;;;;12.24;43.18;98485.91;4467744;32;34020;-80
2021/12/05 17:56:12;;;;;;;;;;;;;;;12.37;42.89;98485.50;4469107;32;34059;-80
2021/12/05 17:59:04;;;;;;;;;;;;;;;11.94;44.03;98486.31;4466837;32;33428;-80
2021/12/05 18:04:14;;;;;;;;;;;;;;;12.17;43.35;98482.19;4455996;32;33060;-81
2021/12/05 18:06:41;;;;;;;;;;;;;;;12.00;43.95;98477.66;4473279;32;34418;-79
2021/12/05 18:09:09;;;;;;;;;;;;;;;11.60;44.81;98474.41;4468620;32;33519;-79
2021/12/05 18:11:37;;;;;;;;;;;;;;;11.48;45.19;98478.31;4457642;32;33958;-80
2021/12/05 18:14:05;;;;;;;;;;;;;;;11.96;44.13;98473.62;4466214;32;33287;-80
2021/12/05 18:16:33;;;;;;;;;;;;;;;12.00;44.12;98467.78;4450206;32;33694;-78
2021/12/05 18:19:04;;;;;;;;;;;;;;;11.69;44.91;98470.00;4450259;32;33803;-79
2021/12/05 18:21:32;;;;;;;;;;;;;;;11.93;44.42;98469.41;4458338;32;34002;-79
2021/12/05 18:23:59;;;;;;;;;;;;;;;11.92;44.25;98465.03;4471553;32;34383;-79
2021/12/05 18:26:30;;;;;;;;;;;;;;;12.06;43.96;98453.75;4445628;32;34191;-79
2021/12/05 18:28:58;;;;;;;;;;;;;;;11.97;44.26;98451.16;4454654;32;32815;-80
2021/12/05 18:31:26;;;;;;;;;;;;;;;11.99;44.10;98446.50;4440307;32;37133;-79
2021/12/05 18:33:56;;;;;;;;;;;;;;;11.99;43.84;98463.41;4446930;32;32789;-80